Time;durP1;ratioP1;P1;durP2;ratioP2;P2;SDS_P1;SDS_P2;PMS_P1;PMS_P2;Temp;Humidity;BMP_temperature;BMP_pressure;BME280_temperature;BME280_humidity;BME280_pressure;Samples;Min_cycle;Max_cycle;Signal;HPM_P1;HPM_P2
2022/09/29 00:00:41;;;;;;;4.00;3.60;;;6.90;99.90;;;;;;6115955;23;20006;-87
2022/09/29 00:03:06;;;;;;;5.47;3.58;;;6.90;99.90;;;;;;6117655;23;20002;-87
2022/09/29 00:05:35;;;;;;;3.90;3.47;;;6.90;99.90;;;;;;6116863;23;20017;-86
2022/09/29 00:08:01;;;;;;;3.42;2.92;;;6.90;99.90;;;;;;6117933;23;20002;-86
2022/09/29 00:10:26;;;;;;;3.72;3.25;;;6.90;99.90;;;;;;6116934;23;19998;-87
2022/09/29 00:12:52;;;;;;;4.53;3.80;;;6.90;99.90;;;;;;6118739;23;20010;-86
2022/09/29 00:15:18;;;;;;;4.55;3.55;;;6.80;99.90;;;;;;6117539;23;20301;-87
2022/09/29 00:17:43;;;;;;;4.80;3.40;;;6.80;99.90;;;;;;6117816;23;20022;-87
2022/09/29 00:20:09;;;;;;;6.88;3.70;;;6.70;99.90;;;;;;6117570;23;20009;-86
2022/09/29 00:22:38;;;;;;;5.50;3.33;;;6.70;99.90;;;;;;6117702;23;20017;-86
2022/09/29 00:25:04;;;;;;;4.22;3.30;;;6.70;99.90;;;;;;6116570;23;20045;-86
2022/09/29 00:27:29;;;;;;;4.38;3.35;;;6.60;99.90;;;;;;6119006;23;20009;-86
2022/09/29 00:29:55;;;;;;;5.30;4.05;;;6.60;99.90;;;;;;6116588;23;20328;-86
2022/09/29 00:32:20;;;;;;;5.22;3.35;;;6.50;99.90;;;;;;6118524;23;20323;-87
2022/09/29 00:34:46;;;;;;;4.05;3.65;;;6.40;99.90;;;;;;6116241;23;20006;-86
2022/09/29 00:37:12;;;;;;;13.18;3.55;;;6.40;99.90;;;;;;6118159;23;20047;-86
2022/09/29 00:39:47;;;;;;;4.35;3.33;;;6.40;99.90;;;;;;6118149;23;20002;-85
2022/09/29 00:42:17;;;;;;;4.82;3.20;;;6.30;99.90;;;;;;6117809;23;20060;-86
2022/09/29 00:45:04;;;;;;;5.55;4.38;;;6.30;99.90;;;;;;6117997;23;20435;-87
2022/09/29 00:47:32;;;;;;;6.35;4.85;;;6.30;99.90;;;;;;6117989;23;20025;-87
2022/09/29 00:50:03;;;;;;;9.60;5.57;;;6.30;99.90;;;;;;6117620;23;20447;-86
2022/09/29 00:52:34;;;;;;;6.95;4.90;;;6.30;99.90;;;;;;6118113;23;20033;-87
2022/09/29 00:55:17;;;;;;;11.15;4.57;;;6.30;99.90;;;;;;6117175;23;20044;-86
2022/09/29 00:58:00;;;;;;;8.88;5.28;;;6.30;99.90;;;;;;6117923;23;20447;-86
2022/09/29 01:00:25;;;;;;;7.10;4.80;;;6.30;99.90;;;;;;6116117;23;20002;-86
2022/09/29 01:02:58;;;;;;;7.72;5.60;;;6.40;99.90;;;;;;6116645;23;20024;-85
2022/09/29 01:05:37;;;;;;;8.18;5.55;;;6.40;99.90;;;;;;6115987;23;20009;-87
2022/09/29 01:08:15;;;;;;;11.82;7.57;;;6.40;99.90;;;;;;6117880;23;20014;-87
2022/09/29 01:10:42;;;;;;;10.40;6.88;;;6.40;99.90;;;;;;6116150;23;20006;-87
2022/09/29 01:13:08;;;;;;;10.40;6.50;;;6.50;99.90;;;;;;6117562;23;20005;-85
2022/09/29 01:15:39;;;;;;;10.30;8.18;;;6.50;99.90;;;;;;6116841;23;20494;-86
2022/09/29 01:18:05;;;;;;;11.90;7.88;;;6.60;99.90;;;;;;6117064;22;20053;-87
2022/09/29 01:20:50;;;;;;;8.95;6.13;;;6.60;99.90;;;;;;6117446;23;20002;-86
2022/09/29 01:23:43;;;;;;;10.23;6.53;;;6.70;99.90;;;;;;6118279;23;20029;-87
2022/09/29 01:26:20;;;;;;;8.43;5.95;;;6.70;99.90;;;;;;6116683;23;20017;-87
2022/09/29 01:29:23;;;;;;;8.38;5.20;;;6.70;99.90;;;;;;6118019;23;20006;-86
2022/09/29 01:31:58;;;;;;;6.22;4.85;;;6.70;99.90;;;;;;6117021;23;20084;-86
2022/09/29 01:34:32;;;;;;;5.57;4.43;;;6.70;99.90;;;;;;6117424;23;20021;-86
2022/09/29 01:37:24;;;;;;;6.72;4.68;;;6.70;99.90;;;;;;6116684;23;20085;-87
2022/09/29 01:40:13;;;;;;;8.32;5.55;;;6.70;99.90;;;;;;6118449;23;20323;-87
2022/09/29 01:42:54;;;;;;;8.98;5.40;;;6.60;99.90;;;;;;6118149;23;20014;-87
2022/09/29 01:45:31;;;;;;;8.98;5.07;;;6.60;99.90;;;;;;6116552;23;20067;-86
2022/09/29 01:48:05;;;;;;;7.45;5.07;;;6.60;99.90;;;;;;6117766;23;20327;-85
2022/09/29 01:50:54;;;;;;;7.85;5.35;;;6.50;99.90;;;;;;6116118;23;20002;-86
2022/09/29 01:53:26;;;;;;;7.85;5.18;;;6.50;99.90;;;;;;6118475;23;20144;-86
2022/09/29 01:55:57;;;;;;;6.13;4.55;;;6.50;99.90;;;;;;6117142;23;20375;-86
2022/09/29 01:58:31;;;;;;;8.50;5.50;;;6.50;99.90;;;;;;6116909;23;20006;-86
2022/09/29 02:01:00;;;;;;;8.75;6.18;;;6.50;99.90;;;;;;6116428;23;20390;-86
2022/09/29 02:03:55;;;;;;;8.80;5.88;;;6.50;99.90;;;;;;6117642;23;20339;-86
2022/09/29 02:06:25;;;;;;;7.32;5.13;;;6.40;99.90;;;;;;6105190;23;20058;-86
2022/09/29 02:08:54;;;;;;;11.15;5.22;;;6.30;99.90;;;;;;6117631;23;20396;-84
2022/09/29 02:11:21;;;;;;;7.22;5.10;;;6.30;99.90;;;;;;6116262;23;20423;-85
2022/09/29 02:14:03;;;;;;;6.10;4.90;;;6.30;99.90;;;;;;6117865;23;20053;-86
2022/09/29 02:16:30;;;;;;;6.55;5.10;;;6.20;99.90;;;;;;6114011;22;20085;-85
2022/09/29 02:19:21;;;;;;;11.63;4.72;;;6.20;99.90;;;;;;6115358;23;20018;-87
2022/09/29 02:21:47;;;;;;;7.00;4.75;;;6.20;99.90;;;;;;6115463;23;20056;-86
2022/09/29 02:24:13;;;;;;;4.90;4.22;;;6.10;99.90;;;;;;6117813;23;20006;-86
2022/09/29 02:26:44;;;;;;;6.78;4.57;;;6.10;99.90;;;;;;6117265;23;20002;-86
2022/09/29 02:29:09;;;;;;;4.50;3.60;;;6.00;99.90;;;;;;6116671;23;20002;-86
2022/09/29 02:31:39;;;;;;;5.32;3.55;;;6.00;99.90;;;;;;6115590;23;20320;-86
2022/09/29 02:34:07;;;;;;;5.15;4.15;;;6.00;99.90;;;;;;6117856;23;20416;-85
2022/09/29 02:36:53;;;;;;;7.55;4.55;;;6.00;99.90;;;;;;6116933;23;20124;-86
2022/09/29 02:39:37;;;;;;;8.95;4.05;;;5.90;99.90;;;;;;6118282;23;20017;-87
2022/09/29 02:42:08;;;;;;;5.40;3.67;;;5.80;99.90;;;;;;6117223;23;20014;-87
2022/09/29 02:45:06;;;;;;;9.38;3.90;;;5.80;99.90;;;;;;6117212;23;20331;-86
2022/09/29 02:47:31;;;;;;;6.90;4.32;;;5.80;99.90;;;;;;6116486;23;20002;-87
2022/09/29 02:50:06;;;;;;;4.38;3.47;;;5.70;99.90;;;;;;6117730;23;20316;-86
2022/09/29 02:53:03;;;;;;;5.75;4.10;;;5.70;99.90;;;;;;6116212;23;20459;-86
2022/09/29 02:55:50;;;;;;;;;;;5.70;99.90;;;;;;6117180;23;20331;-87
2022/09/29 02:58:38;;;;;;;4.80;3.67;;;5.60;99.90;;;;;;6118013;23;19908;-85
2022/09/29 03:01:04;;;;;;;3.80;3.33;;;5.60;99.90;;;;;;6115294;23;20049;-86
2022/09/29 03:03:30;;;;;;;5.47;3.83;;;5.60;99.90;;;;;;6117924;23;20015;-87
2022/09/29 03:05:56;;;;;;;9.05;3.65;;;5.50;99.90;;;;;;6116286;23;20006;-87
2022/09/29 03:08:21;;;;;;;4.35;3.17;;;5.50;99.90;;;;;;6118427;23;20014;-85
2022/09/29 03:10:48;;;;;;;3.40;2.95;;;5.40;99.90;;;;;;6115989;23;19998;-86
2022/09/29 03:13:14;;;;;;;9.20;3.15;;;5.40;99.90;;;;;;6117109;23;20090;-85
2022/09/29 03:15:39;;;;;;;5.43;3.38;;;5.40;99.90;;;;;;6113640;23;20033;-86
2022/09/29 03:18:12;;;;;;;4.28;2.95;;;5.40;99.90;;;;;;6115495;22;20419;-86
2022/09/29 03:20:38;;;;;;;4.15;2.97;;;5.40;99.90;;;;;;6115643;23;20036;-85
2022/09/29 03:23:04;;;;;;;3.53;2.90;;;5.40;99.90;;;;;;6116267;23;20323;-86
2022/09/29 03:25:29;;;;;;;4.80;3.20;;;5.30;99.90;;;;;;6115609;23;20455;-86
2022/09/29 03:27:58;;;;;;;4.35;3.28;;;5.30;99.90;;;;;;6118196;23;20002;-83
2022/09/29 03:30:24;;;;;;;3.75;3.45;;;5.30;99.90;;;;;;6116011;23;20645;-86
2022/09/29 03:32:49;;;;;;;4.15;3.13;;;5.40;99.90;;;;;;6116938;23;20002;-86
2022/09/29 03:35:15;;;;;;;5.57;2.78;;;5.30;99.90;;;;;;6117955;23;20006;-87
2022/09/29 03:37:41;;;;;;;4.63;3.10;;;5.30;99.90;;;;;;6116914;23;20033;-85
2022/09/29 03:40:07;;;;;;;7.00;2.90;;;5.30;99.90;;;;;;6117263;23;20002;-85
2022/09/29 03:42:33;;;;;;;2.75;2.50;;;5.30;99.90;;;;;;6114474;23;20061;-87
2022/09/29 03:44:59;;;;;;;5.78;3.15;;;5.30;99.90;;;;;;6116639;23;19999;-85
2022/09/29 03:47:24;;;;;;;7.43;3.95;;;5.20;99.90;;;;;;6114939;23;20005;-86
2022/09/29 03:49:50;;;;;;;3.40;2.83;;;5.30;99.90;;;;;;6118156;23;20006;-86
2022/09/29 03:52:16;;;;;;;9.07;4.45;;;5.30;99.90;;;;;;6116185;23;20370;-87
2022/09/29 03:54:41;;;;;;;4.80;3.50;;;5.20;99.90;;;;;;6116687;23;20501;-86
2022/09/29 03:57:07;;;;;;;9.60;3.88;;;5.20;99.90;;;;;;6116711;23;20022;-85
2022/09/29 03:59:33;;;;;;;5.78;3.67;;;5.20;99.90;;;;;;6117200;23;20006;-86
2022/09/29 04:01:58;;;;;;;5.35;4.22;;;5.20;99.90;;;;;;6116178;23;20017;-86
2022/09/29 04:04:24;;;;;;;6.50;4.80;;;5.20;99.90;;;;;;6116940;23;20339;-86
2022/09/29 04:06:50;;;;;;;7.40;5.95;;;5.10;99.90;;;;;;6115314;23;20017;-87
2022/09/29 04:09:15;;;;;;;6.25;4.63;;;5.10;99.90;;;;;;6118050;23;20081;-87
2022/09/29 04:11:41;;;;;;;6.78;4.68;;;5.10;99.90;;;;;;6114745;23;20115;-86
2022/09/29 04:14:07;;;;;;;6.82;5.35;;;5.10;99.90;;;;;;6116446;23;19999;-86
2022/09/29 04:16:32;;;;;;;8.50;5.60;;;5.10;99.90;;;;;;6115881;22;20008;-86
2022/09/29 04:18:58;;;;;;;6.47;5.03;;;5.00;99.90;;;;;;6117660;23;20009;-86
2022/09/29 04:21:24;;;;;;;11.25;5.88;;;5.10;99.90;;;;;;6115701;23;20018;-86
2022/09/29 04:23:49;;;;;;;9.90;4.93;;;5.00;99.90;;;;;;6117006;23;20085;-87
2022/09/29 04:26:15;;;;;;;10.27;6.53;;;5.00;99.90;;;;;;6112760;23;20010;-86
2022/09/29 04:28:41;;;;;;;11.05;6.35;;;5.00;99.90;;;;;;6115678;23;20013;-86
2022/09/29 04:31:08;;;;;;;12.30;6.68;;;5.00;99.90;;;;;;6115367;23;20002;-86
2022/09/29 04:33:34;;;;;;;9.68;6.47;;;5.00;99.90;;;;;;6115635;23;20006;-86
2022/09/29 04:36:00;;;;;;;9.23;6.30;;;5.00;99.90;;;;;;6115125;23;20006;-86
2022/09/29 04:38:26;;;;;;;12.00;6.93;;;5.00;99.90;;;;;;6116977;23;20033;-85
2022/09/29 04:40:52;;;;;;;15.30;6.55;;;5.00;99.90;;;;;;6114818;23;20484;-86
2022/09/29 04:43:17;;;;;;;7.90;6.00;;;4.90;99.90;;;;;;6116406;23;20010;-85
2022/09/29 04:45:43;;;;;;;9.02;6.57;;;4.90;99.90;;;;;;6112064;23;20006;-87
2022/09/29 04:48:09;;;;;;;11.98;8.50;;;4.90;99.90;;;;;;6085832;23;20006;-85
2022/09/29 04:50:34;;;;;;;11.52;7.63;;;4.90;99.90;;;;;;6114329;23;20496;-85
2022/09/29 04:53:00;;;;;;;13.25;8.20;;;4.90;99.90;;;;;;6117585;23;20036;-85
2022/09/29 04:55:26;;;;;;;13.68;7.68;;;4.90;99.90;;;;;;6118595;23;20501;-86
2022/09/29 04:57:52;;;;;;;10.10;7.43;;;4.90;99.90;;;;;;6115251;23;20022;-84
2022/09/29 05:00:18;;;;;;;15.65;8.13;;;4.90;99.90;;;;;;6115214;23;20026;-87
2022/09/29 05:02:46;;;;;;;13.48;8.27;;;4.90;99.90;;;;;;6117075;23;20068;-87
2022/09/29 05:05:12;;;;;;;13.52;8.25;;;4.90;99.90;;;;;;6118496;23;20081;-87
2022/09/29 05:07:40;;;;;;;12.10;8.32;;;4.90;99.90;;;;;;6115115;23;20439;-89
2022/09/29 05:10:06;;;;;;;12.88;8.75;;;4.90;99.90;;;;;;6118331;23;20008;-86
2022/09/29 05:12:32;;;;;;;13.77;8.98;;;4.90;99.90;;;;;;6117260;23;20462;-87
2022/09/29 05:14:58;;;;;;;18.90;11.10;;;4.90;99.90;;;;;;6117744;23;20002;-88
2022/09/29 05:17:24;;;;;;;18.30;10.60;;;5.00;99.90;;;;;;6118069;22;20021;-87
2022/09/29 05:19:49;;;;;;;14.40;10.57;;;4.90;99.90;;;;;;6118204;23;20323;-88
2022/09/29 05:22:15;;;;;;;20.58;12.13;;;5.00;99.90;;;;;;6117797;23;20018;-87
2022/09/29 05:24:41;;;;;;;17.27;11.10;;;5.00;99.90;;;;;;6118311;23;20009;-87
2022/09/29 05:27:06;;;;;;;18.23;10.40;;;5.00;99.90;;;;;;6117309;23;20081;-86
2022/09/29 05:29:32;;;;;;;16.08;11.43;;;4.90;99.90;;;;;;6118868;23;20359;-86
2022/09/29 05:31:58;;;;;;;25.70;14.50;;;4.90;99.90;;;;;;6117233;23;20003;-86
2022/09/29 05:34:23;;;;;;;24.13;13.98;;;4.90;99.90;;;;;;6118382;23;20331;-86
2022/09/29 05:36:52;;;;;;;22.10;13.45;;;4.90;99.90;;;;;;6117864;23;20075;-86
2022/09/29 05:39:19;;;;;;;25.73;14.00;;;4.90;99.90;;;;;;6118461;23;20144;-87
2022/09/29 05:41:48;;;;;;;25.88;13.15;;;5.00;99.90;;;;;;6116190;23;20083;-85
2022/09/29 05:44:14;;;;;;;20.17;12.95;;;5.00;99.90;;;;;;6118238;23;20006;-87
2022/09/29 05:46:40;;;;;;;21.52;14.18;;;5.10;99.90;;;;;;6117314;23;20002;-86
2022/09/29 05:49:05;;;;;;;21.98;12.80;;;5.10;99.90;;;;;;6118597;23;20447;-86
2022/09/29 05:51:31;;;;;;;30.70;16.00;;;5.10;99.90;;;;;;6116356;23;19998;-87
2022/09/29 05:53:56;;;;;;;22.67;14.98;;;5.20;99.90;;;;;;6118245;23;20033;-87
2022/09/29 05:56:24;;;;;;;25.63;14.82;;;5.30;99.90;;;;;;6117937;23;20022;-85
2022/09/29 05:58:51;;;;;;;31.55;18.48;;;5.30;99.90;;;;;;6118780;23;20010;-84
2022/09/29 06:01:21;;;;;;;33.53;18.25;;;5.40;99.90;;;;;;6117384;23;20010;-86
2022/09/29 06:03:52;;;;;;;31.52;18.80;;;5.40;99.90;;;;;;6116600;23;20025;-86
2022/09/29 06:06:26;;;;;;;28.92;18.92;;;5.40;99.90;;;;;;6116883;23;20129;-86
2022/09/29 06:08:52;;;;;;;36.03;21.63;;;5.50;99.90;;;;;;6118471;23;20006;-86
2022/09/29 06:11:19;;;;;;;37.13;22.08;;;5.50;99.90;;;;;;6117027;23;20377;-88
2022/09/29 06:13:49;;;;;;;38.58;21.00;;;5.60;99.90;;;;;;6117882;23;20089;-85
2022/09/29 06:16:18;;;;;;;27.75;17.38;;;5.60;99.90;;;;;;6117788;23;20052;-87
2022/09/29 06:18:50;;;;;;;27.73;18.15;;;5.70;99.90;;;;;;6117478;23;20026;-86
2022/09/29 06:21:24;;;;;;;22.05;14.88;;;5.70;99.90;;;;;;6117916;23;20429;-87
2022/09/29 06:23:51;;;;;;;25.27;16.67;;;5.70;99.90;;;;;;6117611;23;20347;-86
2022/09/29 06:26:18;;;;;;;26.60;16.95;;;5.80;99.90;;;;;;6117919;23;19990;-87
2022/09/29 06:28:49;;;;;;;27.73;17.55;;;5.90;99.90;;;;;;6118089;23;20030;-87
2022/09/29 06:31:20;;;;;;;42.55;22.00;;;5.90;99.90;;;;;;6116895;23;20109;-86
2022/09/29 06:33:49;;;;;;;28.35;17.50;;;6.00;99.90;;;;;;6118832;23;20002;-86
2022/09/29 06:39:22;;;;;;;26.40;18.27;;;6.10;99.90;;;;;;6118160;23;20025;-85
2022/09/29 06:41:54;;;;;;;34.90;20.70;;;6.20;99.90;;;;;;6117143;23;20013;-86
2022/09/29 06:44:23;;;;;;;28.30;19.20;;;6.20;99.90;;;;;;6118889;23;20092;-84
2022/09/29 06:46:52;;;;;;;31.88;18.65;;;6.30;99.90;;;;;;6117522;23;20107;-85
2022/09/29 06:49:19;;;;;;;24.73;16.85;;;6.40;99.90;;;;;;6116389;23;20365;-86
2022/09/29 06:51:51;;;;;;;23.40;16.23;;;6.40;99.90;;;;;;6114662;23;20014;-86
2022/09/29 06:54:19;;;;;;;46.95;27.00;;;6.50;99.90;;;;;;6117098;23;20006;-86
2022/09/29 06:56:49;;;;;;;34.78;22.75;;;6.60;99.90;;;;;;6117519;23;20063;-86
2022/09/29 06:59:16;;;;;;;42.88;26.27;;;6.60;99.90;;;;;;6118165;23;20080;-87
2022/09/29 07:01:48;;;;;;;35.22;22.95;;;6.70;99.90;;;;;;6117498;23;20021;-85
2022/09/29 07:04:15;;;;;;;44.45;26.48;;;6.70;99.90;;;;;;6116994;23;20045;-86
2022/09/29 07:06:41;;;;;;;41.40;24.25;;;6.80;99.90;;;;;;6117550;23;20005;-85
2022/09/29 07:09:06;;;;;;;37.22;23.20;;;6.90;99.90;;;;;;6118086;23;20073;-84
2022/09/29 07:11:32;;;;;;;40.28;24.15;;;7.00;99.90;;;;;;6116675;23;20094;-87
2022/09/29 07:13:58;;;;;;;46.28;27.23;;;7.10;99.90;;;;;;6116774;23;20064;-86
2022/09/29 07:16:23;;;;;;;43.85;27.13;;;7.10;99.90;;;;;;6116643;23;20018;-85
2022/09/29 07:18:49;;;;;;;44.28;27.45;;;7.20;99.90;;;;;;6117506;22;20029;-85
2022/09/29 07:21:16;;;;;;;43.47;27.40;;;7.30;99.90;;;;;;6116971;23;20111;-87
2022/09/29 07:23:42;;;;;;;40.60;25.40;;;7.40;99.90;;;;;;6117299;23;20423;-85
2022/09/29 07:26:09;;;;;;;37.40;24.63;;;7.40;99.90;;;;;;6117137;23;20009;-83
2022/09/29 07:28:35;;;;;;;40.30;26.40;;;7.50;99.90;;;;;;6116736;23;20013;-85
2022/09/29 07:31:06;;;;;;;42.30;25.98;;;7.60;99.90;;;;;;6116809;23;20014;-86
2022/09/29 07:33:33;;;;;;;40.25;24.10;;;7.60;99.90;;;;;;6114948;23;20002;-85
2022/09/29 07:35:59;;;;;;;30.88;23.17;;;7.70;99.90;;;;;;6117451;23;20010;-85
2022/09/29 07:38:26;;;;;;;45.08;28.23;;;7.70;99.90;;;;;;6116738;23;20006;-86
2022/09/29 07:40:51;;;;;;;41.08;24.58;;;7.80;99.90;;;;;;6117599;23;20002;-84
2022/09/29 07:43:17;;;;;;;40.13;25.38;;;7.90;99.90;;;;;;6115502;23;20006;-85
2022/09/29 07:45:50;;;;;;;33.95;23.13;;;8.00;99.90;;;;;;6115292;23;20090;-86
2022/09/29 07:48:17;;;;;;;37.08;24.13;;;8.00;99.90;;;;;;6115581;23;20002;-85
2022/09/29 07:50:44;;;;;;;48.05;28.25;;;8.10;99.90;;;;;;6115915;23;20010;-85
2022/09/29 07:53:10;;;;;;;37.17;24.98;;;8.10;99.90;;;;;;6114542;23;20010;-86
2022/09/29 07:55:36;;;;;;;32.65;21.50;;;8.20;99.90;;;;;;6117664;23;20006;-85
2022/09/29 07:58:09;;;;;;;40.90;24.73;;;8.20;99.90;;;;;;6116490;23;20017;-85
2022/09/29 08:00:34;;;;;;;38.50;24.05;;;8.30;99.90;;;;;;6115609;23;20014;-85
2022/09/29 08:03:02;;;;;;;34.95;23.00;;;8.30;99.90;;;;;;6115770;23;20093;-86
2022/09/29 08:05:32;;;;;;;30.05;20.60;;;8.40;99.90;;;;;;6115795;23;20002;-86
2022/09/29 08:07:58;;;;;;;36.67;25.23;;;8.40;99.90;;;;;;6116434;23;20006;-85
2022/09/29 08:10:26;;;;;;;32.08;22.38;;;8.40;99.90;;;;;;6116352;23;20436;-87
2022/09/29 08:12:55;;;;;;;28.17;20.30;;;8.40;99.90;;;;;;6115035;23;20305;-85
2022/09/29 08:15:21;;;;;;;37.65;24.00;;;8.40;99.90;;;;;;6116562;23;20088;-86
2022/09/29 08:17:47;;;;;;;36.17;24.80;;;8.50;99.90;;;;;;6115162;22;20026;-86
2022/09/29 08:20:12;;;;;;;34.03;23.02;;;8.50;99.90;;;;;;6114992;23;20439;-86
2022/09/29 08:22:38;;;;;;;31.88;22.73;;;8.60;99.90;;;;;;6115060;23;20428;-86
2022/09/29 08:25:04;;;;;;;31.50;22.55;;;8.60;99.90;;;;;;6116837;23;20006;-86
2022/09/29 08:27:29;;;;;;;31.33;21.83;;;8.70;99.90;;;;;;6116607;23;20002;-86
2022/09/29 08:29:57;;;;;;;38.22;24.33;;;8.70;99.90;;;;;;6117179;23;20006;-85
2022/09/29 08:32:23;;;;;;;31.92;21.83;;;8.80;99.90;;;;;;6091534;23;20091;-85
2022/09/29 08:34:51;;;;;;;33.88;23.30;;;8.80;99.90;;;;;;6119002;23;20033;-84
2022/09/29 08:37:17;;;;;;;36.65;24.08;;;8.80;99.90;;;;;;6117081;23;20013;-86
2022/09/29 08:39:43;;;;;;;40.15;23.17;;;8.90;99.90;;;;;;6117958;23;20002;-84
2022/09/29 08:42:25;;;;;;;33.67;23.85;;;9.00;99.90;;;;;;6116974;23;20017;-86
2022/09/29 08:44:57;;;;;;;27.58;20.90;;;9.10;99.90;;;;;;6115773;23;20009;-85
2022/09/29 08:47:36;;;;;;;28.58;20.58;;;9.20;99.90;;;;;;6115367;23;20006;-85
2022/09/29 08:50:15;;;;;;;31.23;21.85;;;9.30;99.90;;;;;;6116190;23;20006;-85
2022/09/29 08:52:44;;;;;;;31.02;22.15;;;9.40;99.90;;;;;;6116591;23;20001;-86
2022/09/29 08:55:16;;;;;;;24.98;17.50;;;9.50;99.90;;;;;;6118029;23;20013;-85
2022/09/29 08:57:43;;;;;;;23.55;17.67;;;9.50;99.90;;;;;;6117934;23;20097;-86
2022/09/29 09:00:17;;;;;;;32.55;19.58;;;9.60;99.90;;;;;;6117232;23;20060;-86
2022/09/29 09:02:58;;;;;;;25.88;19.17;;;9.60;99.90;;;;;;6116925;23;20574;-87
2022/09/29 09:06:01;;;;;;;20.20;16.45;;;9.70;99.90;;;;;;6117910;23;20081;-85
2022/09/29 09:08:40;;;;;;;24.85;17.80;;;9.80;99.90;;;;;;6115244;23;20028;-84
2022/09/29 09:11:31;;;;;;;27.75;19.95;;;9.70;99.90;;;;;;6118591;23;20005;-84
2022/09/29 09:14:06;;;;;;;25.88;19.05;;;9.70;99.90;;;;;;6117924;23;20006;-85
2022/09/29 09:16:41;;;;;;;22.10;17.58;;;9.70;99.90;;;;;;6117093;22;20036;-86
2022/09/29 09:19:21;;;;;;;22.30;16.30;;;9.80;99.90;;;;;;6118114;23;20443;-84
2022/09/29 09:21:57;;;;;;;19.17;13.95;;;9.80;99.90;;;;;;6117921;23;20097;-86
2022/09/29 09:24:37;;;;;;;16.30;12.35;;;9.80;99.90;;;;;;6118441;23;20060;-86
2022/09/29 09:27:03;;;;;;;17.50;13.50;;;9.80;99.90;;;;;;6116489;23;20049;-85
2022/09/29 09:29:33;;;;;;;15.52;13.70;;;9.90;99.90;;;;;;6118070;23;20002;-84
2022/09/29 09:32:04;;;;;;;21.45;15.52;;;9.90;99.90;;;;;;6116745;23;20013;-85
2022/09/29 09:34:49;;;;;;;20.05;15.68;;;10.00;99.90;;;;;;6118476;23;20465;-85
2022/09/29 09:37:15;;;;;;;16.73;12.90;;;10.10;99.90;;;;;;6117105;23;20028;-85
2022/09/29 09:40:05;;;;;;;26.00;12.98;;;10.10;99.90;;;;;;6118285;23;20432;-86
2022/09/29 09:42:36;;;;;;;15.00;12.13;;;10.00;99.90;;;;;;6123862;23;20072;-86
2022/09/29 09:45:13;;;;;;;19.17;13.32;;;10.00;99.90;;;;;;6117574;23;20013;-86
2022/09/29 09:48:16;;;;;;;18.27;11.88;;;10.00;99.90;;;;;;6117296;23;20010;-86
2022/09/29 09:50:42;;;;;;;15.18;10.90;;;9.90;99.90;;;;;;6128092;23;20006;-86
2022/09/29 09:53:30;;;;;;;10.90;9.77;;;9.90;99.90;;;;;;6115769;23;20005;-86
2022/09/29 09:56:16;;;;;;;15.27;11.68;;;9.90;99.90;;;;;;6118412;23;20006;-87
2022/09/29 09:59:01;;;;;;;18.10;12.15;;;9.90;99.90;;;;;;6117395;23;20002;-87
2022/09/29 10:01:27;;;;;;;19.48;13.05;;;9.80;99.90;;;;;;6116538;23;20014;-86
2022/09/29 10:04:00;;;;;;;16.25;12.38;;;9.90;99.90;;;;;;6117367;23;20026;-87
2022/09/29 10:06:26;;;;;;;18.70;14.43;;;10.00;99.90;;;;;;6119589;23;20033;-87
2022/09/29 10:08:58;;;;;;;17.05;14.05;;;10.10;99.90;;;;;;6117069;23;20428;-86
2022/09/29 10:11:30;;;;;;;14.82;11.20;;;10.30;99.90;;;;;;6116519;23;20014;-86
2022/09/29 10:14:25;;;;;;;16.20;11.93;;;10.30;99.90;;;;;;6117750;23;20060;-87
2022/09/29 10:16:55;;;;;;;12.50;9.90;;;10.60;99.90;;;;;;6115972;23;20072;-85
2022/09/29 10:19:23;;;;;;;8.38;6.60;;;10.80;99.90;;;;;;6116225;23;20363;-86
2022/09/29 10:22:12;;;;;;;8.77;6.10;;;10.90;99.90;;;;;;6118013;23;20014;-86
2022/09/29 10:24:38;;;;;;;11.15;6.70;;;11.00;99.90;;;;;;6114629;23;20017;-86
2022/09/29 10:27:03;;;;;;;8.25;6.22;;;11.00;99.90;;;;;;6117455;23;20292;-87
2022/09/29 10:29:48;;;;;;;7.57;6.40;;;11.10;99.90;;;;;;6117939;23;20002;-86
2022/09/29 10:32:35;;;;;;;8.95;6.55;;;11.00;99.90;;;;;;6117422;23;20021;-87
2022/09/29 10:35:14;;;;;;;12.20;9.55;;;11.00;99.90;;;;;;6117565;23;20097;-86
2022/09/29 10:38:01;;;;;;;10.52;7.93;;;10.90;99.90;;;;;;6115454;23;20460;-86
2022/09/29 10:40:27;;;;;;;8.80;6.35;;;10.90;99.90;;;;;;6115061;23;20003;-87
2022/09/29 10:42:56;;;;;;;9.57;6.00;;;10.90;99.90;;;;;;6112838;23;20037;-87
2022/09/29 10:45:28;;;;;;;9.10;6.82;;;10.80;99.90;;;;;;6115052;23;20006;-87
2022/09/29 10:48:04;;;;;;;7.25;6.07;;;10.80;99.90;;;;;;6115736;23;20010;-87
2022/09/29 10:50:35;;;;;;;10.60;7.50;;;10.80;99.90;;;;;;6117184;23;20081;-86
2022/09/29 10:53:04;;;;;;;12.02;7.03;;;10.80;99.90;;;;;;6116635;23;20047;-86
2022/09/29 10:55:46;;;;;;;10.35;7.75;;;10.90;99.90;;;;;;6092063;23;20037;-86
2022/09/29 10:58:30;;;;;;;12.30;8.80;;;11.10;99.90;;;;;;6116085;23;20471;-88
2022/09/29 11:01:12;;;;;;;14.32;8.77;;;11.20;99.90;;;;;;6117403;23;20103;-87
2022/09/29 11:04:03;;;;;;;8.35;6.60;;;11.40;99.90;;;;;;6116004;23;20013;-87
2022/09/29 11:06:36;;;;;;;7.57;5.60;;;11.50;99.90;;;;;;6115423;23;20002;-87
2022/09/29 11:09:05;;;;;;;6.80;5.00;;;11.60;99.90;;;;;;6116997;23;20009;-87
2022/09/29 11:11:30;;;;;;;6.10;4.75;;;11.60;99.90;;;;;;6115265;23;20006;-88
2022/09/29 11:13:59;;;;;;;6.03;4.57;;;11.50;99.90;;;;;;6116782;23;20005;-88
2022/09/29 11:16:33;;;;;;;6.40;5.50;;;11.50;99.90;;;;;;6117218;22;20443;-88
2022/09/29 11:19:13;;;;;;;7.30;5.45;;;11.50;99.90;;;;;;6116769;23;20451;-87
2022/09/29 11:21:42;;;;;;;6.68;5.50;;;11.50;99.90;;;;;;6116009;23;20013;-87
2022/09/29 11:24:22;;;;;;;8.50;6.22;;;11.50;99.90;;;;;;6116600;23;20009;-86
2022/09/29 11:27:11;;;;;;;9.80;7.20;;;11.40;99.90;;;;;;6116052;23;19998;-87
2022/09/29 11:29:58;;;;;;;7.93;6.50;;;11.50;99.90;;;;;;6118112;23;20010;-87
2022/09/29 11:32:51;;;;;;;10.77;6.93;;;11.60;99.90;;;;;;6117326;23;20013;-87
2022/09/29 11:35:35;;;;;;;10.75;6.60;;;11.60;99.90;;;;;;6117715;23;20336;-87
2022/09/29 11:38:33;;;;;;;6.13;5.53;;;11.60;99.90;;;;;;6116775;23;20435;-87
2022/09/29 11:41:19;;;;;;;8.32;5.88;;;11.50;99.90;;;;;;6112876;23;20017;-88
2022/09/29 11:43:51;;;;;;;10.48;5.28;;;11.50;99.90;;;;;;6117545;23;19998;-88
2022/09/29 11:47:02;;;;;;;6.28;4.95;;;11.40;99.90;;;;;;6117510;23;20082;-88
2022/09/29 11:50:07;;;;;;;7.25;6.47;;;11.40;99.90;;;;;;6116839;23;20010;-87
2022/09/29 11:52:52;;;;;;;9.02;5.85;;;11.40;99.90;;;;;;6066430;23;20002;-87
2022/09/29 11:55:36;;;;;;;9.32;5.70;;;11.40;99.90;;;;;;6118151;23;20064;-88
2022/09/29 11:58:10;;;;;;;8.50;6.38;;;11.50;99.90;;;;;;6113983;23;20093;-87
2022/09/29 12:01:01;;;;;;;8.15;5.53;;;11.50;99.90;;;;;;6116822;23;20006;-86
2022/09/29 12:03:35;;;;;;;7.78;6.43;;;11.50;99.90;;;;;;6116515;23;20010;-88
2022/09/29 12:06:30;;;;;;;7.32;5.85;;;11.50;99.90;;;;;;6116693;23;20065;-88
2022/09/29 12:09:22;;;;;;;5.55;4.20;;;11.50;99.90;;;;;;6116655;23;20450;-88
2022/09/29 12:12:11;;;;;;;7.82;5.32;;;11.50;99.90;;;;;;6118777;23;20446;-88
2022/09/29 12:15:04;;;;;;;5.25;4.53;;;11.40;99.90;;;;;;6117567;23;20009;-87
2022/09/29 12:17:35;;;;;;;10.68;5.78;;;11.40;99.90;;;;;;6118051;22;20018;-87
2022/09/29 12:20:38;;;;;;;8.15;5.47;;;11.40;99.90;;;;;;6118174;23;20009;-88
2022/09/29 12:23:11;;;;;;;5.75;4.60;;;11.50;99.90;;;;;;6051078;23;20038;-87
2022/09/29 12:25:45;;;;;;;6.47;4.20;;;11.50;99.90;;;;;;6103447;23;20017;-88
2022/09/29 12:28:22;;;;;;;4.22;3.83;;;11.50;99.90;;;;;;6115678;23;20013;-88
2022/09/29 12:30:59;;;;;;;8.20;4.15;;;11.40;99.90;;;;;;6118834;23;20073;-89
2022/09/29 12:33:36;;;;;;;8.52;5.35;;;11.60;99.90;;;;;;6112996;23;20018;-88
2022/09/29 12:39:42;;;;;;;10.02;6.20;;;11.80;99.90;;;;;;6118026;23;20052;-88
2022/09/29 12:42:26;;;;;;;8.35;5.10;;;11.80;99.90;;;;;;6118633;23;20019;-89
2022/09/29 12:45:01;;;;;;;9.23;5.72;;;11.80;99.90;;;;;;6118029;23;20009;-86
2022/09/29 12:47:48;;;;;;;6.32;5.22;;;11.80;99.90;;;;;;6116986;23;20316;-88
2022/09/29 12:50:35;;;;;;;8.73;4.75;;;11.80;99.90;;;;;;6117395;23;20057;-88
2022/09/29 12:53:19;;;;;;;8.60;5.40;;;11.70;99.90;;;;;;6118259;23;20030;-88
2022/09/29 12:56:02;;;;;;;6.22;4.97;;;11.70;99.90;;;;;;6116521;23;20006;-88
2022/09/29 12:58:33;;;;;;;7.13;5.90;;;11.70;99.90;;;;;;6117012;23;20052;-87
2022/09/29 13:01:23;;;;;;;8.50;5.65;;;11.70;99.90;;;;;;6114711;23;20446;-87
2022/09/29 13:04:24;;;;;;;11.70;5.95;;;11.70;99.90;;;;;;6113789;23;20014;-87
2022/09/29 13:07:14;;;;;;;7.93;5.85;;;11.70;99.90;;;;;;6115884;23;20002;-89
2022/09/29 13:10:01;;;;;;;6.07;4.88;;;11.70;99.90;;;;;;6113667;23;20024;-88
2022/09/29 13:13:05;;;;;;;7.22;5.75;;;11.70;99.90;;;;;;6111340;23;20006;-89
2022/09/29 13:15:48;;;;;;;6.72;4.68;;;11.60;99.90;;;;;;6118813;23;20323;-89
2022/09/29 13:18:29;;;;;;;3.78;3.25;;;11.50;99.90;;;;;;6117014;23;20033;-87
2022/09/29 13:21:04;;;;;;;4.78;4.00;;;11.50;99.90;;;;;;6116947;23;20010;-89